Time;durP1;ratioP1;P1;durP2;ratioP2;P2;SDS_P1;SDS_P2;PMS_P1;PMS_P2;Temp;Humidity;BMP_temperature;BMP_pressure;BME280_temperature;BME280_humidity;BME280_pressure;Samples;Min_cycle;Max_cycle;Signal;HPM_P1;HPM_P2
2022/09/09 00:00:27;;;;;;;0.50;0.40;;;14.60;99.90;;;;;;5014386;28;20863;-78
2022/09/09 00:03:02;;;;;;;0.50;0.40;;;14.60;99.90;;;;;;5014566;28;20477;-78
2022/09/09 00:05:37;;;;;;;0.50;0.40;;;14.60;99.90;;;;;;5013896;28;20431;-77
2022/09/09 00:08:05;;;;;;;0.50;0.40;;;14.60;99.90;;;;;;5014385;28;20423;-77
2022/09/09 00:10:38;;;;;;;0.50;0.40;;;14.60;99.90;;;;;;5013881;28;20455;-73
2022/09/09 00:13:17;;;;;;;0.50;0.40;;;14.60;99.90;;;;;;5013784;28;20463;-77
2022/09/09 00:15:54;;;;;;;0.50;0.40;;;14.60;99.90;;;;;;5013889;28;20426;-77
2022/09/09 00:18:28;;;;;;;0.50;0.40;;;14.60;99.90;;;;;;5014274;28;20466;-79
2022/09/09 00:20:59;;;;;;;0.50;0.33;;;14.60;99.90;;;;;;5014193;28;20792;-77
2022/09/09 00:23:30;;;;;;;0.50;0.40;;;14.70;99.90;;;;;;5013641;28;20991;-77
2022/09/09 00:26:04;;;;;;;0.50;0.33;;;14.60;99.90;;;;;;5013865;28;20514;-77
2022/09/09 00:28:34;;;;;;;0.50;0.40;;;14.60;99.90;;;;;;5013526;28;20946;-75
2022/09/09 00:31:10;;;;;;;0.50;0.40;;;14.60;99.90;;;;;;5013691;28;20526;-78
2022/09/09 00:33:40;;;;;;;0.50;0.40;;;14.60;99.90;;;;;;5013748;28;20549;-77
2022/09/09 00:36:15;;;;;;;0.50;0.40;;;14.60;99.90;;;;;;5013499;28;20534;-77
2022/09/09 00:38:46;;;;;;;0.50;0.40;;;14.60;99.90;;;;;;5013479;28;20478;-78
2022/09/09 00:41:22;;;;;;;0.50;0.40;;;14.50;99.90;;;;;;5013280;28;20450;-77
2022/09/09 00:43:58;;;;;;;0.50;0.37;;;14.50;99.90;;;;;;5013300;28;20514;-78
2022/09/09 00:46:49;;;;;;;0.50;0.40;;;14.50;99.90;;;;;;5013406;28;20482;-77
2022/09/09 00:49:27;;;;;;;0.50;0.40;;;14.50;99.90;;;;;;5013218;28;20879;-77
2022/09/09 00:52:04;;;;;;;0.50;0.40;;;14.50;99.90;;;;;;5013128;28;20477;-77
2022/09/09 00:54:45;;;;;;;0.50;0.40;;;14.50;99.90;;;;;;5012991;28;20454;-77
2022/09/09 00:57:24;;;;;;;0.50;0.40;;;14.60;99.90;;;;;;5013173;28;20887;-78
2022/09/09 00:59:56;;;;;;;0.90;0.80;;;14.60;99.90;;;;;;5013251;28;20465;-77
2022/09/09 01:02:29;;;;;;;0.50;0.40;;;14.70;99.90;;;;;;5012899;28;20455;-75
2022/09/09 01:05:01;;;;;;;0.50;0.40;;;14.70;99.90;;;;;;5013046;28;20431;-77
2022/09/09 01:07:28;;;;;;;0.50;0.40;;;14.80;99.90;;;;;;5013021;28;20522;-72
2022/09/09 01:10:01;;;;;;;0.50;0.40;;;14.80;99.90;;;;;;5012904;28;20522;-77
2022/09/09 01:12:39;;;;;;;0.50;0.40;;;14.80;99.90;;;;;;5013016;28;20499;-78
2022/09/09 01:15:11;;;;;;;0.50;0.40;;;14.90;99.90;;;;;;5012788;28;20514;-77
2022/09/09 01:17:50;;;;;;;0.50;0.40;;;14.80;99.90;;;;;;5013065;28;20423;-78
2022/09/09 01:20:22;;;;;;;0.50;0.40;;;14.80;99.90;;;;;;5012801;28;20466;-77
2022/09/09 01:23:02;;;;;;;0.70;0.50;;;14.80;99.90;;;;;;5012632;28;20498;-79
2022/09/09 01:26:02;;;;;;;0.50;0.40;;;14.70;99.90;;;;;;5012119;28;20442;-77
2022/09/09 01:28:32;;;;;;;0.50;0.40;;;14.70;99.90;;;;;;4951252;28;20448;-77
2022/09/09 01:31:00;;;;;;;0.50;0.40;;;14.70;99.90;;;;;;4998330;28;20537;-77
2022/09/09 01:33:27;;;;;;;0.50;0.33;;;14.60;99.90;;;;;;5012659;28;20553;-77
2022/09/09 01:36:01;;;;;;;0.50;0.40;;;14.60;99.90;;;;;;5012331;28;20521;-78
2022/09/09 01:38:29;;;;;;;0.50;0.40;;;14.50;99.90;;;;;;5012624;28;20904;-78
2022/09/09 01:40:58;;;;;;;0.50;0.40;;;14.50;99.90;;;;;;5012362;28;20956;-77
2022/09/09 01:43:26;;;;;;;0.50;0.40;;;14.50;99.90;;;;;;5012630;28;20466;-77
2022/09/09 01:45:57;;;;;;;0.50;0.40;;;14.50;99.90;;;;;;5012213;28;20530;-77
2022/09/09 01:48:25;;;;;;;0.50;0.40;;;14.50;99.90;;;;;;5012331;28;20541;-77
2022/09/09 01:50:52;;;;;;;0.50;0.40;;;14.50;99.90;;;;;;5012317;28;20438;-77
2022/09/09 01:53:21;;;;;;;0.50;0.50;;;14.40;99.90;;;;;;5011837;28;20558;-78
2022/09/09 01:55:59;;;;;;;0.50;0.40;;;14.40;99.90;;;;;;5011927;28;20450;-76
2022/09/09 01:58:34;;;;;;;0.50;0.40;;;14.40;99.90;;;;;;5012042;28;20443;-77
2022/09/09 02:01:09;;;;;;;0.50;0.40;;;14.50;99.90;;;;;;5012166;28;20431;-79
2022/09/09 02:03:36;;;;;;;0.50;0.40;;;14.40;99.90;;;;;;5012248;28;20472;-76
2022/09/09 02:06:15;;;;;;;0.50;0.40;;;14.40;99.90;;;;;;5011687;28;20693;-77
2022/09/09 02:08:47;;;;;;;0.50;0.40;;;14.40;99.90;;;;;;5012077;28;20434;-77
2022/09/09 02:11:16;;;;;;;0.50;0.40;;;14.40;99.90;;;;;;5011811;28;20546;-76
2022/09/09 02:13:45;;;;;;;0.50;0.40;;;14.50;99.90;;;;;;5011808;28;20467;-76
2022/09/09 02:16:19;;;;;;;0.60;0.57;;;14.50;99.90;;;;;;5011277;28;20955;-78
2022/09/09 02:18:52;;;;;;;0.50;0.40;;;14.40;99.90;;;;;;5011705;28;20446;-77
2022/09/09 02:21:19;;;;;;;0.50;0.30;;;14.50;99.90;;;;;;5011935;28;20517;-77
2022/09/09 02:23:48;;;;;;;0.50;0.40;;;14.50;99.90;;;;;;5011739;28;20442;-77
2022/09/09 02:26:20;;;;;;;0.50;0.40;;;14.60;99.90;;;;;;5011625;28;20439;-77
2022/09/09 02:28:48;;;;;;;0.50;0.40;;;14.60;99.90;;;;;;5011509;28;20485;-76
2022/09/09 02:31:18;;;;;;;0.50;0.40;;;14.60;99.90;;;;;;5011802;28;20529;-76
2022/09/09 02:33:49;;;;;;;0.50;0.40;;;14.60;99.90;;;;;;5011274;28;20449;-77
2022/09/09 02:36:17;;;;;;;0.50;0.37;;;14.70;99.90;;;;;;5011750;28;20427;-77
2022/09/09 02:38:52;;;;;;;0.50;0.40;;;14.70;99.90;;;;;;5011763;28;20796;-76
2022/09/09 02:41:22;;;;;;;0.50;0.40;;;14.80;99.90;;;;;;5015570;28;20422;-77
2022/09/09 02:43:49;;;;;;;0.50;0.40;;;14.80;99.90;;;;;;5015454;28;20442;-77
2022/09/09 02:46:29;;;;;;;0.50;0.40;;;14.90;99.90;;;;;;5015714;28;20442;-77
2022/09/09 02:49:01;;;;;;;0.50;0.40;;;14.90;99.90;;;;;;5015667;28;20457;-77
2022/09/09 02:51:37;;;;;;;0.50;0.40;;;14.90;99.90;;;;;;5015638;28;20438;-77
2022/09/09 02:54:13;;;;;;;0.50;0.40;;;15.00;99.90;;;;;;5014755;28;20513;-76
2022/09/09 02:56:44;;;;;;;0.50;0.30;;;15.00;99.90;;;;;;5015715;28;20441;-76
2022/09/09 02:59:11;;;;;;;0.50;0.40;;;14.90;99.90;;;;;;5015092;28;20489;-79
2022/09/09 03:01:39;;;;;;;2.10;2.00;;;14.90;99.90;;;;;;5015424;28;20796;-77
2022/09/09 03:04:07;;;;;;;0.50;0.40;;;14.90;99.90;;;;;;5014730;28;20453;-77
2022/09/09 03:06:35;;;;;;;1.53;0.83;;;14.90;99.90;;;;;;5015419;28;20490;-79
2022/09/09 03:09:02;;;;;;;0.50;0.33;;;14.90;99.90;;;;;;5014750;28;20442;-78
2022/09/09 03:11:29;;;;;;;0.50;0.40;;;14.90;99.90;;;;;;5015112;28;20994;-77
2022/09/09 03:13:56;;;;;;;0.50;0.40;;;14.90;99.90;;;;;;5014326;28;20439;-77
2022/09/09 03:16:24;;;;;;;0.50;0.30;;;14.80;99.90;;;;;;5014759;28;20446;-76
2022/09/09 03:18:52;;;;;;;0.50;0.37;;;14.90;99.90;;;;;;5014352;28;20864;-77
2022/09/09 03:21:19;;;;;;;0.50;0.40;;;14.90;99.90;;;;;;5015055;28;20845;-77
2022/09/09 03:23:46;;;;;;;0.50;0.40;;;14.80;99.90;;;;;;5014592;28;20874;-77
2022/09/09 03:26:14;;;;;;;0.50;0.40;;;14.80;99.90;;;;;;5014601;28;20466;-76
2022/09/09 03:28:41;;;;;;;0.50;0.40;;;14.80;99.90;;;;;;5014735;28;20955;-78
2022/09/09 03:31:10;;;;;;;0.50;0.40;;;14.80;99.90;;;;;;5014594;28;20529;-76
2022/09/09 03:33:37;;;;;;;0.50;0.40;;;14.70;99.90;;;;;;5014318;28;20828;-77
2022/09/09 03:36:07;;;;;;;0.50;0.40;;;14.80;99.90;;;;;;5014498;28;20489;-75
2022/09/09 03:38:34;;;;;;;0.50;0.33;;;14.80;99.90;;;;;;5014930;28;20524;-76
2022/09/09 03:41:01;;;;;;;0.50;0.40;;;14.80;99.90;;;;;;5014573;28;20916;-75
2022/09/09 03:43:29;;;;;;;0.50;0.40;;;14.70;99.90;;;;;;5014507;28;20466;-77
2022/09/09 03:45:57;;;;;;;0.50;0.30;;;14.80;99.90;;;;;;5014163;28;20442;-75
2022/09/09 03:48:25;;;;;;;0.50;0.40;;;14.80;99.90;;;;;;5014538;28;20443;-75
2022/09/09 03:50:53;;;;;;;0.50;0.40;;;14.90;99.90;;;;;;5014119;28;20855;-76
2022/09/09 03:53:24;;;;;;;0.50;0.40;;;14.90;99.90;;;;;;5014350;28;20474;-76
2022/09/09 03:55:54;;;;;;;0.50;0.40;;;14.90;99.90;;;;;;5013969;28;20427;-77
2022/09/09 03:58:23;;;;;;;0.50;0.40;;;14.90;99.90;;;;;;5014140;28;20466;-78
2022/09/09 04:00:55;;;;;;;0.50;0.40;;;14.90;99.90;;;;;;5014300;28;20613;-76
2022/09/09 04:03:24;;;;;;;0.50;0.40;;;14.90;99.90;;;;;;5014010;28;20983;-77
2022/09/09 04:05:51;;;;;;;0.50;0.40;;;14.90;99.90;;;;;;5013611;28;20530;-76
2022/09/09 04:08:18;;;;;;;0.50;0.40;;;14.80;99.90;;;;;;5014149;28;20439;-75
2022/09/09 04:10:47;;;;;;;0.50;0.30;;;14.80;99.90;;;;;;5013585;28;20791;-77
2022/09/09 04:13:16;;;;;;;0.50;0.40;;;14.90;99.90;;;;;;5013666;28;20964;-75
2022/09/09 04:15:43;;;;;;;0.50;0.30;;;14.90;99.90;;;;;;5013907;28;20804;-76
2022/09/09 04:18:11;;;;;;;0.80;0.40;;;14.80;99.90;;;;;;5014046;28;20821;-76
2022/09/09 04:20:38;;;;;;;0.50;0.50;;;14.70;99.90;;;;;;5013553;28;20473;-76
2022/09/09 04:23:05;;;;;;;0.50;0.40;;;14.70;99.90;;;;;;5014030;28;20553;-76
2022/09/09 04:25:33;;;;;;;0.50;0.40;;;14.70;99.90;;;;;;5013937;28;20490;-76
2022/09/09 04:28:02;;;;;;;1.63;0.80;;;14.70;99.90;;;;;;5014023;28;20847;-76
2022/09/09 04:30:29;;;;;;;0.50;0.40;;;14.60;99.90;;;;;;5013354;28;20446;-77
2022/09/09 04:32:57;;;;;;;0.50;0.40;;;14.70;99.90;;;;;;5013865;28;20461;-77
2022/09/09 04:35:24;;;;;;;0.50;0.40;;;14.70;99.90;;;;;;5016757;28;20435;-76
2022/09/09 04:37:51;;;;;;;0.50;0.40;;;14.70;99.90;;;;;;5016814;28;20458;-76
2022/09/09 04:40:18;;;;;;;0.60;0.60;;;14.60;99.90;;;;;;5014947;28;20561;-76
2022/09/09 04:42:44;;;;;;;0.50;0.40;;;14.60;99.90;;;;;;5015031;28;20982;-76
2022/09/09 04:45:13;;;;;;;0.50;0.40;;;14.60;99.90;;;;;;5014156;28;20443;-76
2022/09/09 04:47:40;;;;;;;0.50;0.37;;;14.70;99.90;;;;;;5014949;28;20445;-75
2022/09/09 04:50:08;;;;;;;0.50;0.40;;;14.80;99.90;;;;;;5016240;28;20466;-75
2022/09/09 04:52:35;;;;;;;0.50;0.30;;;14.80;99.90;;;;;;5014251;28;20509;-75
2022/09/09 04:55:02;;;;;;;0.50;0.50;;;14.80;99.90;;;;;;5014754;28;20446;-76
2022/09/09 04:57:32;;;;;;;0.50;0.30;;;14.80;99.90;;;;;;5013929;28;20447;-76
2022/09/09 04:59:59;;;;;;;0.50;0.37;;;14.80;99.90;;;;;;5014494;28;20479;-76
2022/09/09 05:02:28;;;;;;;3.37;3.17;;;14.80;99.90;;;;;;5013155;28;20470;-75
2022/09/09 05:04:55;;;;;;;0.50;0.40;;;15.00;99.90;;;;;;5013725;28;20510;-76
2022/09/09 05:07:21;;;;;;;0.50;0.40;;;15.00;99.90;;;;;;5014072;28;20501;-75
2022/09/09 05:09:49;;;;;;;0.50;0.40;;;15.00;99.90;;;;;;5014490;28;20482;-75
2022/09/09 05:12:17;;;;;;;0.50;0.33;;;15.00;99.90;;;;;;5014812;28;20978;-76
2022/09/09 05:14:44;;;;;;;0.50;0.40;;;15.10;99.90;;;;;;5018101;28;20443;-76
2022/09/09 05:17:11;;;;;;;0.50;0.40;;;15.20;99.90;;;;;;5019517;28;20443;-75
2022/09/09 05:19:39;;;;;;;0.50;0.40;;;15.20;99.90;;;;;;5018425;28;20446;-75
2022/09/09 05:22:07;;;;;;;0.50;0.30;;;15.20;99.90;;;;;;5017943;28;20459;-75
2022/09/09 05:24:34;;;;;;;0.50;0.40;;;15.20;99.90;;;;;;5018638;28;20505;-76
2022/09/09 05:27:02;;;;;;;0.50;0.30;;;15.20;99.90;;;;;;5019518;28;20524;-77
2022/09/09 05:29:29;;;;;;;0.50;0.40;;;15.20;99.90;;;;;;5035960;28;20974;-76
2022/09/09 05:31:56;;;;;;;0.50;0.40;;;15.20;99.90;;;;;;5038498;28;20542;-75
2022/09/09 05:34:22;;;;;;;0.60;0.40;;;15.30;99.90;;;;;;5034394;28;20780;-77
2022/09/09 05:36:51;;;;;;;0.50;0.40;;;15.30;99.90;;;;;;5037966;28;20478;-76
2022/09/09 05:39:18;;;;;;;0.50;0.40;;;15.30;99.90;;;;;;5038622;28;20474;-75
2022/09/09 05:41:45;;;;;;;0.50;0.40;;;15.40;99.90;;;;;;5038993;28;20484;-75
2022/09/09 05:44:13;;;;;;;0.60;0.60;;;15.50;99.90;;;;;;5038983;28;20518;-76
2022/09/09 05:46:40;;;;;;;0.50;0.30;;;15.50;99.90;;;;;;5039076;28;20457;-75
2022/09/09 05:49:08;;;;;;;0.50;0.50;;;15.50;99.90;;;;;;5037980;28;20449;-75
2022/09/09 05:51:35;;;;;;;0.50;0.40;;;15.50;99.90;;;;;;5037650;28;20455;-76
2022/09/09 05:54:03;;;;;;;0.50;0.40;;;15.60;99.90;;;;;;5037012;28;20454;-74
2022/09/09 05:56:32;;;;;;;0.50;0.40;;;15.60;99.90;;;;;;5038519;28;20892;-73
2022/09/09 05:59:00;;;;;;;0.50;0.40;;;15.70;99.90;;;;;;5037681;28;20507;-75
2022/09/09 06:01:29;;;;;;;0.50;0.33;;;15.70;99.90;;;;;;5036623;28;20476;-76
2022/09/09 06:03:56;;;;;;;0.50;0.30;;;15.80;99.90;;;;;;5037121;28;20461;-75
2022/09/09 06:06:25;;;;;;;0.50;0.40;;;15.80;99.90;;;;;;5038640;28;20540;-75
2022/09/09 06:08:53;;;;;;;0.50;0.40;;;15.90;99.90;;;;;;5036944;28;20541;-74
2022/09/09 06:11:24;;;;;;;0.60;0.57;;;15.90;99.90;;;;;;5038339;28;20435;-75
2022/09/09 06:13:53;;;;;;;0.50;0.40;;;16.00;99.90;;;;;;5038139;28;20505;-74
2022/09/09 06:16:22;;;;;;;0.50;0.30;;;16.00;99.90;;;;;;5036687;28;20542;-76
2022/09/09 06:18:50;;;;;;;0.50;0.40;;;16.10;99.90;;;;;;5038602;28;20971;-75
2022/09/09 06:21:19;;;;;;;1.03;0.87;;;16.20;99.90;;;;;;5037308;28;20493;-75
2022/09/09 06:23:47;;;;;;;0.50;0.40;;;16.40;99.90;;;;;;5037323;28;20552;-78
2022/09/09 06:26:17;;;;;;;0.50;0.30;;;16.70;99.90;;;;;;5031440;28;20457;-76
2022/09/09 06:28:47;;;;;;;0.50;0.40;;;16.90;99.90;;;;;;5027863;28;20449;-75
2022/09/09 06:31:17;;;;;;;0.50;0.40;;;17.00;99.90;;;;;;5035417;28;20436;-75
2022/09/09 06:33:44;;;;;;;0.50;0.40;;;16.90;99.90;;;;;;5034912;28;20485;-78
2022/09/09 06:36:13;;;;;;;0.80;0.80;;;17.00;99.90;;;;;;5035061;28;20472;-76
2022/09/09 06:38:40;;;;;;;0.97;0.87;;;17.00;99.90;;;;;;5035255;28;20446;-75
2022/09/09 06:41:07;;;;;;;0.90;0.87;;;17.00;99.90;;;;;;5033953;28;20556;-75
2022/09/09 06:43:34;;;;;;;0.50;0.40;;;17.00;99.90;;;;;;5034858;28;20878;-76
2022/09/09 06:46:06;;;;;;;0.50;0.40;;;17.00;99.90;;;;;;5034097;28;20452;-75
2022/09/09 06:48:33;;;;;;;0.50;0.40;;;17.10;99.90;;;;;;5034864;28;20943;-75
2022/09/09 06:51:04;;;;;;;0.50;0.30;;;17.10;99.90;;;;;;5035350;28;20541;-76
2022/09/09 06:53:33;;;;;;;0.50;0.30;;;17.10;99.90;;;;;;5034446;28;20987;-75
2022/09/09 06:56:01;;;;;;;0.50;0.40;;;17.10;99.90;;;;;;5034396;28;20461;-75
2022/09/09 06:58:27;;;;;;;0.50;0.40;;;17.10;99.90;;;;;;5034629;28;20445;-75
2022/09/09 07:01:03;;;;;;;1.27;0.93;;;17.10;99.90;;;;;;5033860;28;20611;-74
2022/09/09 07:03:30;;;;;;;0.50;0.30;;;17.20;99.90;;;;;;5033248;28;20469;-76
2022/09/09 07:05:57;;;;;;;0.50;0.30;;;17.50;99.90;;;;;;5032748;28;20529;-75
2022/09/09 07:08:26;;;;;;;0.50;0.30;;;17.80;99.90;;;;;;5033114;28;20449;-75
2022/09/09 07:10:53;;;;;;;0.50;0.30;;;17.90;99.90;;;;;;5032556;28;20496;-75
2022/09/09 07:13:24;;;;;;;0.50;0.30;;;18.00;99.90;;;;;;5032366;28;20465;-75
2022/09/09 07:15:50;;;;;;;0.50;0.40;;;18.20;99.90;;;;;;5032703;28;20453;-74
2022/09/09 07:18:19;;;;;;;0.50;0.40;;;19.20;99.90;;;;;;5033537;28;21031;-74
2022/09/09 07:20:54;;;;;;;0.50;0.30;;;21.00;99.90;;;;;;5032016;28;20504;-77
2022/09/09 07:23:21;;;;;;;0.50;0.37;;;22.30;99.90;;;;;;5030811;28;20481;-74
2022/09/09 07:25:48;;;;;;;0.50;0.30;;;23.10;99.90;;;;;;5022967;28;20526;-75
2022/09/09 07:28:15;;;;;;;0.90;0.90;;;23.60;99.90;;;;;;5015713;28;20458;-77
2022/09/09 07:30:42;;;;;;;0.50;0.40;;;24.60;99.90;;;;;;5015562;28;20503;-75
2022/09/09 07:33:10;;;;;;;0.60;0.40;;;25.80;99.90;;;;;;5014672;28;20867;-76
2022/09/09 07:35:39;;;;;;;0.50;0.40;;;26.80;99.90;;;;;;5014306;28;20435;-78
2022/09/09 07:38:06;;;;;;;1.47;1.37;;;26.90;99.90;;;;;;5015100;28;20442;-76
2022/09/09 07:40:33;;;;;;;0.70;0.60;;;26.10;99.90;;;;;;5014969;28;20470;-76
2022/09/09 07:43:00;;;;;;;0.60;0.50;;;26.40;99.90;;;;;;5014537;28;20469;-76
2022/09/09 07:45:28;;;;;;;1.87;1.77;;;25.80;99.90;;;;;;5014273;28;20442;-75
2022/09/09 07:47:56;;;;;;;0.50;0.37;;;24.80;99.90;;;;;;5014623;28;21187;-76
2022/09/09 07:50:24;;;;;;;0.50;0.40;;;25.40;99.90;;;;;;5014046;28;20439;-77
2022/09/09 07:52:53;;;;;;;0.70;0.70;;;25.60;99.90;;;;;;5016686;28;20473;-75
2022/09/09 07:55:20;;;;;;;0.50;0.37;;;25.50;99.90;;;;;;5020984;28;20578;-77
2022/09/09 07:57:47;;;;;;;1.67;0.60;;;25.40;99.90;;;;;;5034888;28;20884;-75
2022/09/09 08:00:15;;;;;;;0.50;0.30;;;25.30;99.90;;;;;;5074348;22;20499;-78
2022/09/09 08:02:42;;;;;;;5.33;1.20;;;24.30;99.90;;;;;;5055381;28;20436;-77
2022/09/09 08:05:09;;;;;;;9.40;2.40;;;24.50;99.90;;;;;;5073269;28;20436;-78
2022/09/09 08:07:36;;;;;;;1.10;0.83;;;24.40;99.90;;;;;;5073976;28;20451;-75
2022/09/09 08:10:06;;;;;;;6.03;1.80;;;24.00;99.90;;;;;;5073760;28;20464;-78
2022/09/09 08:12:33;;;;;;;0.60;0.50;;;23.20;99.90;;;;;;5074152;28;20428;-78
2022/09/09 08:15:00;;;;;;;0.60;0.40;;;22.70;99.90;;;;;;5072941;28;20436;-78
2022/09/09 08:17:26;;;;;;;0.50;0.40;;;22.20;99.90;;;;;;5073643;28;20519;-78
2022/09/09 08:19:54;;;;;;;3.73;3.53;;;22.40;99.90;;;;;;5073008;28;20848;-78
2022/09/09 08:22:21;;;;;;;0.93;0.93;;;22.30;99.90;;;;;;5073360;28;20479;-75
2022/09/09 08:24:48;;;;;;;0.50;0.30;;;23.10;99.90;;;;;;5072754;28;20476;-78
2022/09/09 08:27:16;;;;;;;2.60;0.60;;;24.00;99.90;;;;;;5073195;28;20531;-75
2022/09/09 08:29:44;;;;;;;2.70;1.03;;;23.60;99.90;;;;;;5072885;28;20559;-75
2022/09/09 08:32:11;;;;;;;0.83;0.60;;;23.30;99.90;;;;;;5073027;28;21037;-78
2022/09/09 08:34:37;;;;;;;0.53;0.40;;;22.90;99.90;;;;;;5072869;28;20464;-77
2022/09/09 08:37:04;;;;;;;0.63;0.60;;;22.10;99.90;;;;;;5071582;28;20527;-78
2022/09/09 08:39:32;;;;;;;0.50;0.40;;;21.10;99.90;;;;;;5072782;28;20974;-78
2022/09/09 08:42:11;;;;;;;6.30;1.10;;;21.20;99.90;;;;;;5072971;28;20809;-77
2022/09/09 08:45:07;;;;;;;6.10;1.13;;;21.80;99.90;;;;;;5072709;28;20834;-78
2022/09/09 08:47:46;;;;;;;1.00;0.47;;;22.50;99.90;;;;;;5058963;28;20466;-78
2022/09/09 08:50:21;;;;;;;0.77;0.50;;;23.90;99.90;;;;;;5072642;28;20558;-76
2022/09/09 08:52:55;;;;;;;0.50;0.30;;;25.10;99.90;;;;;;5072651;28;20435;-76
2022/09/09 08:55:27;;;;;;;0.50;0.40;;;25.50;99.90;;;;;;5072288;28;20503;-76
2022/09/09 08:57:56;;;;;;;0.50;0.30;;;25.30;99.90;;;;;;5072341;28;20425;-76
2022/09/09 09:00:35;;;;;;;0.50;0.40;;;25.90;99.90;;;;;;5072093;28;20854;-76
2022/09/09 09:03:12;;;;;;;1.00;0.50;;;26.70;97.10;;;;;;5072334;28;20436;-76
2022/09/09 09:05:47;;;;;;;2.67;0.80;;;27.50;92.00;;;;;;5071818;28;20438;-76
2022/09/09 09:08:22;;;;;;;0.60;0.40;;;28.10;86.30;;;;;;5072241;28;20428;-74
2022/09/09 09:10:51;;;;;;;0.60;0.50;;;27.30;86.10;;;;;;5072360;28;20451;-77
2022/09/09 09:13:21;;;;;;;1.27;1.17;;;27.30;86.10;;;;;;5072261;28;20432;-76
2022/09/09 09:15:54;;;;;;;0.50;0.30;;;26.60;88.90;;;;;;5071717;28;20420;-76
2022/09/09 09:18:21;;;;;;;0.50;0.33;;;26.70;90.20;;;;;;5072429;28;20539;-76
2022/09/09 09:20:55;;;;;;;0.50;0.40;;;26.10;91.40;;;;;;5071784;28;20900;-75
2022/09/09 09:23:25;;;;;;;1.17;1.17;;;26.20;93.20;;;;;;5071753;28;20956;-76
2022/09/09 09:25:57;;;;;;;0.60;0.40;;;25.00;93.50;;;;;;5071768;28;20542;-75
2022/09/09 09:28:26;;;;;;;0.60;0.40;;;24.20;95.20;;;;;;5071451;28;20864;-76
2022/09/09 09:30:59;;;;;;;0.50;0.50;;;23.40;98.20;;;;;;5071672;28;20447;-78
2022/09/09 09:33:31;;;;;;;0.70;0.50;;;22.40;99.90;;;;;;5071778;28;20879;-78
2022/09/09 09:35:59;;;;;;;0.50;0.40;;;22.00;99.90;;;;;;5072092;28;20440;-78
2022/09/09 09:38:28;;;;;;;0.50;0.30;;;21.80;99.90;;;;;;5071835;28;20493;-74
2022/09/09 09:40:57;;;;;;;0.57;0.53;;;21.80;99.90;;;;;;5071814;28;20876;-76
2022/09/09 09:43:27;;;;;;;0.50;0.30;;;21.70;99.90;;;;;;5071833;28;20471;-76
2022/09/09 09:45:57;;;;;;;0.50;0.40;;;21.40;99.90;;;;;;5071691;28;20498;-76
2022/09/09 09:48:25;;;;;;;0.60;0.40;;;21.20;99.90;;;;;;5071828;28;20440;-76
2022/09/09 09:50:54;;;;;;;0.50;0.30;;;21.10;99.90;;;;;;5071355;28;20523;-76
2022/09/09 09:53:24;;;;;;;0.67;0.60;;;20.90;99.90;;;;;;5071134;28;20446;-76
2022/09/09 09:55:55;;;;;;;0.50;0.30;;;20.70;99.90;;;;;;5071072;28;20902;-75
2022/09/09 09:58:22;;;;;;;0.60;0.60;;;20.70;99.90;;;;;;5071613;28;20427;-76
2022/09/09 10:00:51;;;;;;;1.13;1.03;;;20.60;99.90;;;;;;5071402;28;20467;-76
2022/09/09 10:03:27;;;;;;;0.50;0.30;;;20.40;99.90;;;;;;5071403;28;20472;-76
2022/09/09 10:05:56;;;;;;;0.53;0.43;;;20.30;99.90;;;;;;5071180;28;20432;-76
2022/09/09 10:08:23;;;;;;;0.50;0.40;;;20.20;99.90;;;;;;5071539;28;20447;-77
2022/09/09 10:11:13;;;;;;;0.50;0.30;;;20.20;99.90;;;;;;5071242;28;20945;-76
2022/09/09 10:13:49;;;;;;;0.50;0.40;;;20.20;99.90;;;;;;5071528;28;20429;-76
2022/09/09 10:16:27;;;;;;;3.07;0.83;;;20.50;99.90;;;;;;5071169;28;20905;-76
2022/09/09 10:19:03;;;;;;;0.50;0.30;;;21.60;99.90;;;;;;5070865;28;20459;-76
2022/09/09 10:21:47;;;;;;;0.80;0.57;;;23.40;99.90;;;;;;5071123;28;20562;-72
2022/09/09 10:24:44;;;;;;;0.50;0.30;;;24.40;99.90;;;;;;5070804;28;20965;-77
2022/09/09 10:27:20;;;;;;;0.50;0.50;;;25.30;99.50;;;;;;5057809;28;20958;-77
2022/09/09 10:30:08;;;;;;;0.50;0.30;;;26.00;93.00;;;;;;5071113;28;20539;-76
2022/09/09 10:32:50;;;;;;;0.60;0.60;;;26.20;92.30;;;;;;5071435;28;20460;-77
2022/09/09 10:35:28;;;;;;;0.50;0.37;;;25.70;90.30;;;;;;5070942;28;20432;-77
2022/09/09 10:38:17;;;;;;;0.50;0.40;;;25.20;91.30;;;;;;5071470;28;20523;-77
2022/09/09 10:40:51;;;;;;;0.50;0.40;;;24.60;91.50;;;;;;5071539;28;20802;-77
2022/09/09 10:43:34;;;;;;;1.43;0.50;;;23.50;92.70;;;;;;5071381;28;20996;-77
2022/09/09 10:46:09;;;;;;;0.60;0.50;;;22.20;99.40;;;;;;5070564;28;20498;-77
2022/09/09 10:48:48;;;;;;;0.60;0.50;;;21.70;99.90;;;;;;5071503;28;20531;-77
2022/09/09 10:51:23;;;;;;;1.27;1.17;;;21.40;99.90;;;;;;5071499;28;20443;-76
2022/09/09 10:54:03;;;;;;;0.60;0.50;;;21.00;99.90;;;;;;5071055;28;20527;-74
2022/09/09 10:56:31;;;;;;;0.60;0.50;;;20.70;99.90;;;;;;5071338;28;20420;-76
2022/09/09 10:59:01;;;;;;;0.50;0.30;;;20.60;99.90;;;;;;5071062;28;20486;-78
2022/09/09 11:01:33;;;;;;;0.50;0.40;;;20.50;99.90;;;;;;5074106;28;20420;-77
2022/09/09 11:04:04;;;;;;;0.50;0.30;;;20.60;99.90;;;;;;5075058;28;20438;-76
2022/09/09 11:06:40;;;;;;;0.50;0.30;;;20.80;99.90;;;;;;5074890;28;20420;-76
2022/09/09 11:09:16;;;;;;;0.60;0.50;;;21.20;99.90;;;;;;5075069;28;20887;-76
2022/09/09 11:11:50;;;;;;;0.50;0.40;;;21.60;99.90;;;;;;5074576;28;20497;-77
2022/09/09 11:14:24;;;;;;;0.70;0.70;;;21.60;99.90;;;;;;5074443;28;20459;-77
2022/09/09 11:16:54;;;;;;;6.33;0.73;;;21.70;99.90;;;;;;5074860;28;20432;-76
2022/09/09 11:19:29;;;;;;;0.60;0.40;;;21.80;99.90;;;;;;5074364;28;20912;-77
2022/09/09 11:22:00;;;;;;;0.50;0.40;;;21.80;99.90;;;;;;5074451;28;20471;-77
2022/09/09 11:24:32;;;;;;;0.50;0.30;;;21.90;99.90;;;;;;5074188;28;20467;-77
2022/09/09 11:27:03;;;;;;;0.50;0.40;;;22.00;99.90;;;;;;5074679;28;20519;-77
2022/09/09 11:29:53;;;;;;;0.50;0.40;;;22.40;99.90;;;;;;5074110;28;20995;-76
2022/09/09 11:32:35;;;;;;;0.50;0.30;;;22.30;99.90;;;;;;5062394;28;20444;-76
2022/09/09 11:35:18;;;;;;;0.50;0.30;;;22.20;99.90;;;;;;5074342;28;20503;-79
2022/09/09 11:38:00;;;;;;;0.50;0.40;;;22.30;99.90;;;;;;5073748;28;20428;-77
2022/09/09 11:40:28;;;;;;;0.50;0.30;;;22.30;99.90;;;;;;5073960;28;20535;-77
2022/09/09 11:43:09;;;;;;;0.50;0.40;;;22.00;99.90;;;;;;5074043;28;20561;-77
2022/09/09 11:45:37;;;;;;;0.60;0.40;;;21.80;99.90;;;;;;5073535;28;20420;-73
2022/09/09 11:48:06;;;;;;;0.90;0.53;;;21.60;99.90;;;;;;5073993;28;20443;-77
2022/09/09 11:50:36;;;;;;;0.60;0.60;;;21.40;99.90;;;;;;5074426;28;20572;-77
2022/09/09 11:53:23;;;;;;;0.73;0.73;;;21.10;99.90;;;;;;5074182;28;20547;-75
2022/09/09 11:56:03;;;;;;;0.60;0.50;;;21.00;99.90;;;;;;5073838;28;20431;-76
2022/09/09 11:58:37;;;;;;;5.40;1.03;;;20.80;99.90;;;;;;5073273;28;20466;-76
2022/09/09 12:01:15;;;;;;;0.50;0.40;;;20.40;99.90;;;;;;5073752;28;20445;-78
2022/09/09 12:03:45;;;;;;;0.50;0.40;;;19.70;99.90;;;;;;5073543;28;20482;-77
2022/09/09 12:06:18;;;;;;;0.50;0.40;;;19.40;99.90;;;;;;5073274;28;20442;-77
2022/09/09 12:08:52;;;;;;;0.50;0.40;;;19.10;99.90;;;;;;5073642;28;20456;-76
2022/09/09 12:11:29;;;;;;;4.50;0.70;;;19.20;99.90;;;;;;5073013;28;20436;-77
2022/09/09 12:13:58;;;;;;;1.17;0.80;;;19.40;99.90;;;;;;5073224;28;20412;-76
2022/09/09 12:16:34;;;;;;;0.50;0.40;;;19.90;99.90;;;;;;5073824;28;20478;-77
2022/09/09 12:19:15;;;;;;;0.50;0.40;;;20.70;99.90;;;;;;5072873;28;20456;-77
2022/09/09 12:21:49;;;;;;;0.50;0.30;;;21.10;99.90;;;;;;5073612;28;20421;-75
2022/09/09 12:24:23;;;;;;;0.50;0.37;;;21.20;99.90;;;;;;5073266;28;20420;-76
2022/09/09 12:26:57;;;;;;;0.60;0.40;;;21.00;99.90;;;;;;5073362;28;20440;-75
2022/09/09 12:29:32;;;;;;;0.70;0.60;;;20.50;99.90;;;;;;5073763;28;20455;-76
2022/09/09 12:32:05;;;;;;;0.57;0.47;;;20.20;99.90;;;;;;5073243;28;20527;-76
2022/09/09 12:34:38;;;;;;;0.50;0.40;;;20.00;99.90;;;;;;5073169;28;20436;-76
2022/09/09 12:37:14;;;;;;;0.50;0.40;;;19.80;99.90;;;;;;5073176;28;20524;-75
2022/09/09 12:39:46;;;;;;;0.50;0.30;;;19.80;99.90;;;;;;5073154;28;20821;-77
2022/09/09 12:42:20;;;;;;;0.50;0.33;;;20.00;99.90;;;;;;5072725;28;20468;-77
2022/09/09 12:44:55;;;;;;;0.53;0.37;;;20.60;99.90;;;;;;5072702;28;21012;-77
2022/09/09 12:47:25;;;;;;;0.50;0.37;;;21.20;99.90;;;;;;5073049;28;20962;-76
2022/09/09 12:49:52;;;;;;;0.50;0.40;;;21.40;99.90;;;;;;5073124;28;20957;-77
2022/09/09 12:52:29;;;;;;;0.50;0.30;;;21.40;99.90;;;;;;5072540;28;20440;-77
2022/09/09 12:54:59;;;;;;;0.50;0.40;;;21.10;99.90;;;;;;5072799;28;20777;-77
2022/09/09 12:57:31;;;;;;;0.50;0.30;;;20.90;99.90;;;;;;5073009;28;20896;-77
2022/09/09 13:00:07;;;;;;;0.67;0.67;;;20.60;99.90;;;;;;5072360;28;20490;-77
2022/09/09 13:02:34;;;;;;;0.50;0.33;;;20.30;99.90;;;;;;5072570;28;20841;-77
2022/09/09 13:05:14;;;;;;;1.27;0.63;;;20.10;99.90;;;;;;5071683;28;20440;-77
2022/09/09 13:07:41;;;;;;;0.50;0.30;;;19.70;99.90;;;;;;5072536;28;20431;-73